createdAt,value
2022-12-18T00:03:34.919Z,16.65
2022-12-18T00:07:36.613Z,17.40
2022-12-18T00:11:38.138Z,18.88
2022-12-18T00:15:40.654Z,16.13
2022-12-18T00:19:42.281Z,16.67
2022-12-18T00:23:45.281Z,16.80
2022-12-18T00:27:46.783Z,16.23
2022-12-18T00:31:48.827Z,16.10
2022-12-18T00:35:50.355Z,15.18
2022-12-18T00:39:51.843Z,14.15
2022-12-18T00:43:54.962Z,14.57
2022-12-18T00:47:57.018Z,16.00
2022-12-18T00:51:58.556Z,12.85
2022-12-18T00:56:00.157Z,12.38
2022-12-18T01:00:02.106Z,15.70
2022-12-18T01:04:04.424Z,16.05
2022-12-18T01:08:05.990Z,14.13
2022-12-18T01:12:07.813Z,12.68
2022-12-18T01:16:09.918Z,13.10
2022-12-18T01:20:13.525Z,11.40
2022-12-18T01:24:15.011Z,11.73
2022-12-18T01:28:16.960Z,11.05
2022-12-18T01:32:18.559Z,9.13
2022-12-18T01:36:23.935Z,9.18
2022-12-18T01:40:25.478Z,10.02
2022-12-18T01:45:04.861Z,10.20
2022-12-18T01:49:06.314Z,12.00
2022-12-18T01:53:15.843Z,10.85
2022-12-18T01:57:17.623Z,12.40
2022-12-18T02:01:19.719Z,9.93
2022-12-18T02:05:36.101Z,9.77
2022-12-18T02:09:47.954Z,9.38
2022-12-18T02:14:17.772Z,9.48
2022-12-18T02:18:24.796Z,8.02
2022-12-18T02:22:55.200Z,7.32
2022-12-18T02:27:01.704Z,8.13
2022-12-18T02:31:08.992Z,9.40
2022-12-18T02:35:17.689Z,8.57
2022-12-18T02:39:22.131Z,8.00
2022-12-18T02:43:34.092Z,9.20
2022-12-18T02:47:39.982Z,9.27
2022-12-18T02:51:57.091Z,7.60
2022-12-18T02:56:20.399Z,7.05
2022-12-18T03:00:38.623Z,6.10
2022-12-18T03:05:18.971Z,8.27
2022-12-18T03:09:36.387Z,8.65
2022-12-18T03:13:51.893Z,7.65
2022-12-18T03:18:00.293Z,7.97
2022-12-18T03:22:07.906Z,7.20
2022-12-18T03:26:23.003Z,6.40
2022-12-18T03:30:32.136Z,6.97
2022-12-18T03:34:37.373Z,6.40
2022-12-18T03:38:42.154Z,6.95
2022-12-18T03:43:04.353Z,7.30
2022-12-18T03:47:28.492Z,6.40
2022-12-18T03:51:51.862Z,5.63
2022-12-18T03:55:54.093Z,6.55
2022-12-18T04:00:01.634Z,5.90
2022-12-18T04:04:17.557Z,6.28
2022-12-18T04:08:21.586Z,4.07
2022-12-18T04:12:31.489Z,5.82
2022-12-18T04:16:33.074Z,5.65
2022-12-18T04:20:38.020Z,5.65
2022-12-18T04:24:39.713Z,5.70
2022-12-18T04:28:51.773Z,4.38
2022-12-18T04:32:53.358Z,5.45
2022-12-18T04:36:56.577Z,5.93
2022-12-18T04:40:58.820Z,4.97
2022-12-18T04:45:02.629Z,5.75
2022-12-18T04:49:04.105Z,5.07
2022-12-18T04:53:05.795Z,4.85
2022-12-18T04:57:07.374Z,5.68
2022-12-18T05:01:09.817Z,6.57
2022-12-18T05:05:11.505Z,5.15
2022-12-18T05:09:13.148Z,5.45
2022-12-18T05:13:14.649Z,6.18
2022-12-18T05:17:16.295Z,4.55
2022-12-18T05:21:17.955Z,4.97
2022-12-18T05:25:20.401Z,6.05
2022-12-18T05:29:22.488Z,4.32
2022-12-18T05:33:26.997Z,5.43
2022-12-18T05:37:28.552Z,4.82
2022-12-18T05:41:30.204Z,4.75
2022-12-18T05:45:31.880Z,4.10
2022-12-18T05:49:33.365Z,4.38
2022-12-18T05:53:36.098Z,5.10
2022-12-18T05:57:37.738Z,3.78
2022-12-18T06:01:39.334Z,4.43
2022-12-18T06:05:44.302Z,3.50
2022-12-18T06:09:45.809Z,5.22
2022-12-18T06:13:53.489Z,4.68
2022-12-18T06:17:57.837Z,4.18
2022-12-18T06:21:59.832Z,4.93
2022-12-18T06:26:10.351Z,4.45
2022-12-18T06:30:13.101Z,3.92
2022-12-18T06:34:15.555Z,4.18
2022-12-18T06:38:17.196Z,5.68
2022-12-18T06:42:18.757Z,3.58
2022-12-18T06:46:20.339Z,4.40
2022-12-18T06:50:21.826Z,4.70
2022-12-18T06:54:23.305Z,6.00
2022-12-18T06:58:25.451Z,4.75
2022-12-18T07:02:27.285Z,6.15
2022-12-18T07:06:28.945Z,6.15
2022-12-18T07:10:30.499Z,5.03
2022-12-18T07:14:32.080Z,4.90
2022-12-18T07:18:33.675Z,5.82
2022-12-18T07:22:35.226Z,6.13
2022-12-18T07:26:36.719Z,5.43
2022-12-18T07:30:39.277Z,6.35
2022-12-18T07:34:40.996Z,6.30
2022-12-18T07:38:43.015Z,7.68
2022-12-18T07:42:44.527Z,6.68
2022-12-18T07:46:46.071Z,8.30
2022-12-18T07:50:47.813Z,6.97
2022-12-18T07:54:50.863Z,5.68
2022-12-18T07:58:52.412Z,6.43
2022-12-18T08:02:54.396Z,7.80
2022-12-18T08:06:56.073Z,7.05
2022-12-18T08:10:58.292Z,7.20
2022-12-18T08:14:59.768Z,8.48
2022-12-18T08:19:01.309Z,9.57
2022-12-18T08:23:02.985Z,10.18
2022-12-18T08:27:28.399Z,9.60
2022-12-18T08:31:27.303Z,10.68
2022-12-18T08:35:34.247Z,11.80
2022-12-18T08:39:37.901Z,11.23
2022-12-18T08:43:58.110Z,11.15
2022-12-18T08:47:59.761Z,11.80
2022-12-18T08:52:01.553Z,11.88
2022-12-18T08:56:04.274Z,11.85
2022-12-18T09:00:06.294Z,12.18
2022-12-18T09:04:09.032Z,12.18
2022-12-18T09:08:10.644Z,11.25
2022-12-18T09:12:12.213Z,13.07
2022-12-18T09:16:13.952Z,12.05
2022-12-18T09:20:15.460Z,13.00
2022-12-18T09:24:18.685Z,13.70
2022-12-18T09:28:20.294Z,12.32
2022-12-18T09:32:22.592Z,14.05
2022-12-18T09:36:24.375Z,13.88
2022-12-18T09:40:29.068Z,13.32
2022-12-18T09:44:43.039Z,12.70
2022-12-18T09:48:51.546Z,12.13
2022-12-18T09:52:57.445Z,11.70
2022-12-18T10:01:00.645Z,11.32
2022-12-18T10:05:15.105Z,13.30
2022-12-18T10:09:32.613Z,12.07
2022-12-18T10:13:40.030Z,13.30
2022-12-18T10:18:02.845Z,12.48
2022-12-18T10:22:27.402Z,12.77
2022-12-18T10:26:32.746Z,11.27
2022-12-18T10:30:34.462Z,12.90
2022-12-18T10:34:36.126Z,10.95
2022-12-18T10:38:38.700Z,11.88
2022-12-18T10:42:42.756Z,11.90
2022-12-18T10:46:48.950Z,12.32
2022-12-18T10:51:10.809Z,11.93
2022-12-18T10:55:17.308Z,13.10
2022-12-18T10:59:19.383Z,13.45
2022-12-18T11:03:32.443Z,13.27
2022-12-18T11:07:50.257Z,13.68
2022-12-18T11:12:04.723Z,12.68
2022-12-18T11:16:06.784Z,12.38
2022-12-18T11:20:24.706Z,13.45
2022-12-18T11:24:37.327Z,11.63
2022-12-18T11:28:43.232Z,12.82
2022-12-18T11:33:04.951Z,12.38
2022-12-18T11:37:06.539Z,13.07
2022-12-18T11:41:17.216Z,12.68
2022-12-18T11:45:26.400Z,12.35
2022-12-18T11:49:34.112Z,12.27
2022-12-18T11:53:38.961Z,12.80
2022-12-18T11:57:46.368Z,11.82
2022-12-18T12:02:00.747Z,11.38
2022-12-18T12:06:27.098Z,12.35
2022-12-18T12:10:35.783Z,12.13
2022-12-18T12:14:52.059Z,11.80
2022-12-18T12:19:15.624Z,12.10
2022-12-18T12:23:40.828Z,12.73
2022-12-18T12:27:57.077Z,12.20
2022-12-18T12:32:08.755Z,11.27
2022-12-18T12:36:30.466Z,10.27
2022-12-18T12:41:00.546Z,11.90
2022-12-18T12:45:01.646Z,11.32
2022-12-18T12:49:05.547Z,12.70
2022-12-18T12:53:10.344Z,10.43
2022-12-18T12:57:22.678Z,11.45
2022-12-18T13:01:38.274Z,12.20
2022-12-18T13:05:52.268Z,11.32
2022-12-18T13:10:23.493Z,12.32
2022-12-18T13:14:38.820Z,12.10
2022-12-18T13:18:50.970Z,11.52
2022-12-18T13:22:52.985Z,11.18
2022-12-18T13:26:55.234Z,12.02
2022-12-18T13:30:58.599Z,12.10
2022-12-18T13:35:18.325Z,11.85
2022-12-18T13:39:28.942Z,10.90
2022-12-18T13:43:44.332Z,10.45
2022-12-18T13:47:46.354Z,10.52
2022-12-18T13:51:50.283Z,10.00
2022-12-18T13:55:52.775Z,10.45
2022-12-18T13:59:55.486Z,8.85
2022-12-18T14:04:20.061Z,7.72
2022-12-18T14:08:22.145Z,9.00
2022-12-18T14:12:46.272Z,8.30
2022-12-18T14:16:49.923Z,7.18
2022-12-18T14:20:55.849Z,8.57
2022-12-18T14:25:17.801Z,8.48
2022-12-18T14:29:27.732Z,8.32
2022-12-18T14:33:29.271Z,8.07
2022-12-18T14:37:30.900Z,7.68
2022-12-18T14:41:33.967Z,9.38
2022-12-18T14:45:47.041Z,8.35
2022-12-18T14:49:49.360Z,9.40
2022-12-18T14:54:08.765Z,7.07
2022-12-18T14:58:16.641Z,7.90
2022-12-18T15:02:24.244Z,8.25
2022-12-18T15:06:35.653Z,6.75
2022-12-18T15:10:48.279Z,8.63
2022-12-18T15:14:50.120Z,10.35
2022-12-18T15:18:54.158Z,8.35
2022-12-18T15:22:55.977Z,7.78
2022-12-18T15:26:58.075Z,8.38
2022-12-18T15:31:25.627Z,9.07
2022-12-18T15:35:27.533Z,7.60
2022-12-18T15:39:29.199Z,8.52
2022-12-18T15:43:34.645Z,9.30
2022-12-18T15:47:36.285Z,6.53
2022-12-18T15:51:39.034Z,4.38
2022-12-18T15:56:01.306Z,10.15
2022-12-18T16:00:03.793Z,6.15
2022-12-18T16:04:06.933Z,9.07
2022-12-18T16:08:08.545Z,6.13
2022-12-18T16:12:22.804Z,8.77
2022-12-18T16:16:24.377Z,8.32
2022-12-18T16:20:27.204Z,6.95
2022-12-18T16:24:31.227Z,8.23
2022-12-18T16:28:32.747Z,10.10
2022-12-18T16:32:34.216Z,5.47
2022-12-18T16:36:35.720Z,6.78
2022-12-18T16:40:58.884Z,8.95
2022-12-18T16:45:00.611Z,8.43
2022-12-18T16:49:02.190Z,9.63
2022-12-18T16:53:03.744Z,6.68
2022-12-18T16:57:05.710Z,6.45
2022-12-18T17:01:11.814Z,8.07
2022-12-18T17:05:13.501Z,9.13
2022-12-18T17:09:22.237Z,10.20
2022-12-18T17:13:27.413Z,9.20
2022-12-18T17:17:28.934Z,10.40
2022-12-18T17:21:30.846Z,8.13
2022-12-18T17:25:32.548Z,5.97
2022-12-18T17:29:34.551Z,7.93
2022-12-18T17:33:36.443Z,8.73
2022-12-18T17:37:41.603Z,8.23
2022-12-18T17:41:43.337Z,8.35
2022-12-18T17:45:45.252Z,6.63
2022-12-18T17:49:46.823Z,7.15
2022-12-18T17:53:48.802Z,10.02
2022-12-18T17:57:50.443Z,8.85
2022-12-18T18:01:52.418Z,8.70
2022-12-18T18:06:01.590Z,7.22
2022-12-18T18:10:04.348Z,5.38
2022-12-18T18:14:11.367Z,8.50
2022-12-18T18:18:13.698Z,9.23
2022-12-18T18:22:16.839Z,8.35
2022-12-18T18:26:19.935Z,8.07
2022-12-18T18:30:22.386Z,6.28
2022-12-18T18:34:28.106Z,7.90
2022-12-18T18:38:29.781Z,8.43
2022-12-18T18:42:31.451Z,7.25
2022-12-18T18:46:33.425Z,7.90
2022-12-18T18:50:35.209Z,7.00
2022-12-18T18:54:36.832Z,6.88
2022-12-18T18:58:38.583Z,7.40
2022-12-18T19:02:40.385Z,7.72
2022-12-18T19:06:42.642Z,8.50
2022-12-18T19:10:44.592Z,8.52
